Time;durP1;ratioP1;P1;durP2;ratioP2;P2;SDS_P1;SDS_P2;PMS_P1;PMS_P2;Temp;Humidity;BMP_temperature;BMP_pressure;BME280_temperature;BME280_humidity;BME280_pressure;Samples;Min_cycle;Max_cycle;Signal;HPM_P1;HPM_P2
2021/03/04 00:01:32;;;;;;;157.80;56.33;;;;;;;;;;4998071;28;20732;-70
2021/03/04 00:03:58;;;;;;;150.97;54.27;;;;;;;;;;5000161;28;20189;-71
2021/03/04 00:06:24;;;;;;;168.63;55.03;;;;;;;;;;5006398;28;20183;-71
2021/03/04 00:08:49;;;;;;;137.37;52.20;;;;;;;;;;5002548;28;20711;-70
2021/03/04 00:11:14;;;;;;;149.70;52.97;;;;;;;;;;4999982;28;20179;-71
2021/03/04 00:13:40;;;;;;;147.43;53.13;;;;;;;;;;5001563;28;20299;-70
2021/03/04 00:16:05;;;;;;;149.23;55.47;;;;;;;;;;4997600;28;20186;-71
2021/03/04 00:18:30;;;;;;;146.43;53.07;;;;;;;;;;5003318;28;20676;-70
2021/03/04 00:20:55;;;;;;;144.73;52.73;;;;;;;;;;5002197;28;20189;-71
2021/03/04 00:23:21;;;;;;;149.40;52.23;;;;;;;;;;5001153;28;20183;-72
2021/03/04 00:25:46;;;;;;;145.17;53.70;;;;;;;;;;5003997;28;20256;-71
2021/03/04 00:28:11;;;;;;;142.33;52.70;;;;;;;;;;5011487;28;20645;-70
2021/03/04 00:30:36;;;;;;;150.03;55.93;;;;;;;;;;5000903;28;20210;-71
2021/03/04 00:33:02;;;;;;;155.83;56.17;;;;;;;;;;4985104;28;20180;-71
2021/03/04 00:35:27;;;;;;;146.43;56.33;;;;;;;;;;4984983;28;20171;-70
2021/03/04 00:37:53;;;;;;;161.10;54.97;;;;;;;;;;4999809;28;20190;-71
2021/03/04 00:40:19;;;;;;;164.20;61.20;;;;;;;;;;4983658;28;20206;-73
2021/03/04 00:42:44;;;;;;;152.83;57.83;;;;;;;;;;5001847;28;21042;-71
2021/03/04 00:45:17;;;;;;;159.20;53.70;;;;;;;;;;4980782;28;20183;-71
2021/03/04 00:47:42;;;;;;;167.20;59.17;;;;;;;;;;4986789;28;20191;-71
2021/03/04 00:50:08;;;;;;;166.37;57.57;;;;;;;;;;4986278;28;20232;-72
2021/03/04 00:52:33;;;;;;;166.30;56.60;;;;;;;;;;5001344;28;20523;-70
2021/03/04 00:54:58;;;;;;;149.63;56.30;;;;;;;;;;5003490;28;20280;-71
2021/03/04 00:57:23;;;;;;;159.83;58.47;;;;;;;;;;5000023;28;20615;-72
2021/03/04 00:59:48;;;;;;;174.73;57.33;;;;;;;;;;5006481;28;20211;-71
2021/03/04 01:02:14;;;;;;;142.53;53.97;;;;;;;;;;4983351;28;20212;-71
2021/03/04 01:04:39;;;;;;;130.33;51.80;;;;;;;;;;4998347;28;20556;-71
2021/03/04 01:07:04;;;;;;;142.23;52.92;;;;;;;;;;5002438;28;20168;-71
2021/03/04 01:09:29;;;;;;;145.27;53.20;;;;;;;;;;5005443;28;20404;-70
2021/03/04 01:11:54;;;;;;;144.10;55.33;;;;;;;;;;5002071;28;20667;-70
2021/03/04 01:14:19;;;;;;;143.83;54.47;;;;;;;;;;4997701;28;20188;-70
2021/03/04 01:16:45;;;;;;;145.03;54.10;;;;;;;;;;5006905;28;20183;-71
2021/03/04 01:19:10;;;;;;;141.93;51.77;;;;;;;;;;5010664;28;20206;-71
2021/03/04 01:21:35;;;;;;;152.23;55.23;;;;;;;;;;5004848;28;20167;-71
2021/03/04 01:24:00;;;;;;;153.10;53.63;;;;;;;;;;5001371;28;20187;-71
2021/03/04 01:26:25;;;;;;;155.90;58.80;;;;;;;;;;4997876;28;20183;-71
2021/03/04 01:28:51;;;;;;;146.00;53.17;;;;;;;;;;5001516;28;20199;-71
2021/03/04 01:31:16;;;;;;;145.47;53.43;;;;;;;;;;5007286;28;20317;-71
2021/03/04 01:33:41;;;;;;;147.10;55.20;;;;;;;;;;4999020;28;20183;-71
2021/03/04 01:36:06;;;;;;;161.97;55.67;;;;;;;;;;5004174;28;20574;-72
2021/03/04 01:38:31;;;;;;;150.33;54.73;;;;;;;;;;5005507;28;20214;-71
2021/03/04 01:40:57;;;;;;;144.67;54.67;;;;;;;;;;5005818;28;20273;-72
2021/03/04 01:43:22;;;;;;;157.53;53.80;;;;;;;;;;4999926;28;20176;-70
2021/03/04 01:45:47;;;;;;;162.00;56.97;;;;;;;;;;5006782;28;20179;-72
2021/03/04 01:48:12;;;;;;;156.53;51.67;;;;;;;;;;5004790;28;20175;-71
2021/03/04 01:50:38;;;;;;;157.03;54.37;;;;;;;;;;5000941;28;20583;-71
2021/03/04 01:53:03;;;;;;;148.30;50.07;;;;;;;;;;5006944;28;20197;-71
2021/03/04 01:55:28;;;;;;;143.73;51.30;;;;;;;;;;5002776;28;20188;-71
2021/03/04 01:57:54;;;;;;;140.63;53.03;;;;;;;;;;5002069;28;20278;-71
2021/03/04 02:00:20;;;;;;;150.10;52.40;;;;;;;;;;4998530;28;20304;-71
2021/03/04 02:02:45;;;;;;;154.30;53.73;;;;;;;;;;5005450;28;20435;-70
2021/03/04 02:05:12;;;;;;;148.13;54.43;;;;;;;;;;5005125;28;20166;-71
2021/03/04 02:07:55;;;;;;;151.97;51.77;;;;;;;;;;5001288;28;20178;-72
2021/03/04 02:10:36;;;;;;;151.97;50.50;;;;;;;;;;4998601;28;20662;-70
2021/03/04 02:13:03;;;;;;;147.13;53.37;;;;;;;;;;4996630;28;20281;-71
2021/03/04 02:15:35;;;;;;;165.70;53.73;;;;;;;;;;5001300;28;20176;-70
2021/03/04 02:18:02;;;;;;;145.03;50.33;;;;;;;;;;4999998;28;20681;-70
2021/03/04 02:20:35;;;;;;;147.47;50.80;;;;;;;;;;4996253;28;20212;-71
2021/03/04 02:23:19;;;;;;;150.10;49.97;;;;;;;;;;4998185;28;20166;-70
2021/03/04 02:26:03;;;;;;;136.57;48.33;;;;;;;;;;5004734;28;20645;-70
2021/03/04 02:28:29;;;;;;;122.13;46.27;;;;;;;;;;4996659;28;20195;-71
2021/03/04 02:30:56;;;;;;;135.13;48.60;;;;;;;;;;5005271;28;20192;-71
2021/03/04 02:33:23;;;;;;;131.73;48.40;;;;;;;;;;4999670;28;20302;-70
2021/03/04 02:35:48;;;;;;;129.90;46.17;;;;;;;;;;5007299;28;20179;-70
2021/03/04 02:38:15;;;;;;;119.20;45.23;;;;;;;;;;5002659;28;20215;-70
2021/03/04 02:40:42;;;;;;;132.67;46.17;;;;;;;;;;4999790;28;20207;-70
2021/03/04 02:43:09;;;;;;;120.33;44.47;;;;;;;;;;5003360;28;20241;-70
2021/03/04 02:45:35;;;;;;;120.40;46.33;;;;;;;;;;5005941;28;20175;-70
2021/03/04 02:48:01;;;;;;;105.03;42.17;;;;;;;;;;5004710;28;20250;-70
2021/03/04 02:50:26;;;;;;;121.47;43.77;;;;;;;;;;5005658;28;20211;-70
2021/03/04 02:52:52;;;;;;;114.10;43.00;;;;;;;;;;5008153;28;20253;-71
2021/03/04 02:55:17;;;;;;;100.27;40.13;;;;;;;;;;5009749;28;20195;-70
2021/03/04 02:57:44;;;;;;;102.73;39.97;;;;;;;;;;4993092;28;20258;-70
2021/03/04 03:00:11;;;;;;;100.53;43.43;;;;;;;;;;4999793;28;20206;-71
2021/03/04 03:02:37;;;;;;;110.23;42.70;;;;;;;;;;4995745;28;20194;-71
2021/03/04 03:05:07;;;;;;;102.63;39.90;;;;;;;;;;5000583;28;20170;-70
2021/03/04 03:07:35;;;;;;;101.47;39.17;;;;;;;;;;4998944;28;20278;-70
2021/03/04 03:10:01;;;;;;;95.40;38.50;;;;;;;;;;5004560;28;20218;-70
2021/03/04 03:12:26;;;;;;;95.17;39.27;;;;;;;;;;4997321;28;20786;-70
2021/03/04 03:14:51;;;;;;;94.67;41.60;;;;;;;;;;4998236;28;20283;-70
2021/03/04 03:17:17;;;;;;;86.77;38.60;;;;;;;;;;5002142;28;20538;-70
2021/03/04 03:19:42;;;;;;;92.90;39.70;;;;;;;;;;5002080;28;20684;-70
2021/03/04 03:22:07;;;;;;;97.10;37.57;;;;;;;;;;5000981;28;20188;-70
2021/03/04 03:24:33;;;;;;;93.03;39.73;;;;;;;;;;5000166;28;20178;-71
2021/03/04 03:26:58;;;;;;;90.43;38.87;;;;;;;;;;5001034;28;20193;-71
2021/03/04 03:29:23;;;;;;;91.03;35.43;;;;;;;;;;4999991;28;20207;-70
2021/03/04 03:31:49;;;;;;;91.03;35.40;;;;;;;;;;4998843;28;20193;-71
2021/03/04 03:34:15;;;;;;;92.97;40.67;;;;;;;;;;4996586;28;20558;-70
2021/03/04 03:36:40;;;;;;;91.20;36.43;;;;;;;;;;5004729;28;20186;-70
2021/03/04 03:39:07;;;;;;;86.53;37.40;;;;;;;;;;5005295;28;20242;-70
2021/03/04 03:41:32;;;;;;;102.20;38.30;;;;;;;;;;5004502;28;20183;-70
2021/03/04 03:43:58;;;;;;;92.43;37.87;;;;;;;;;;5003364;28;20183;-71
2021/03/04 03:46:24;;;;;;;93.60;36.93;;;;;;;;;;4997748;28;20213;-70
2021/03/04 03:48:50;;;;;;;93.20;39.77;;;;;;;;;;4998923;28;20234;-70
2021/03/04 03:51:15;;;;;;;91.57;37.73;;;;;;;;;;5002334;28;20624;-70
2021/03/04 03:53:41;;;;;;;96.03;37.37;;;;;;;;;;5008244;28;20206;-70
2021/03/04 03:56:06;;;;;;;86.77;36.43;;;;;;;;;;5000367;28;20730;-71
2021/03/04 03:58:32;;;;;;;80.97;35.07;;;;;;;;;;5006846;28;20203;-70
2021/03/04 04:00:57;;;;;;;83.33;37.50;;;;;;;;;;5006337;28;20187;-70
2021/03/04 04:03:23;;;;;;;88.83;35.60;;;;;;;;;;5000115;28;20191;-71
2021/03/04 04:05:49;;;;;;;83.13;33.03;;;;;;;;;;5002159;28;20206;-70
2021/03/04 04:08:14;;;;;;;81.53;34.83;;;;;;;;;;5002380;28;20535;-70
2021/03/04 04:10:39;;;;;;;83.00;33.73;;;;;;;;;;5001737;28;20687;-71
2021/03/04 04:13:04;;;;;;;76.37;33.23;;;;;;;;;;5003976;28;20274;-71
2021/03/04 04:15:30;;;;;;;79.43;32.17;;;;;;;;;;4996130;28;20187;-70
2021/03/04 04:17:57;;;;;;;78.70;33.83;;;;;;;;;;5005276;28;20198;-70
2021/03/04 04:20:22;;;;;;;73.93;31.70;;;;;;;;;;5001937;28;20209;-71
2021/03/04 04:22:48;;;;;;;81.30;33.10;;;;;;;;;;5002955;28;20168;-71
2021/03/04 04:25:14;;;;;;;75.67;31.60;;;;;;;;;;5001608;28;20176;-70
2021/03/04 04:27:39;;;;;;;69.93;31.83;;;;;;;;;;5009949;28;20207;-72
2021/03/04 04:30:06;;;;;;;69.37;31.93;;;;;;;;;;5000252;28;20200;-70
2021/03/04 04:32:31;;;;;;;78.00;31.63;;;;;;;;;;5010433;28;20175;-70
2021/03/04 04:34:56;;;;;;;69.73;31.13;;;;;;;;;;5006815;28;20644;-70
2021/03/04 04:37:21;;;;;;;65.13;31.53;;;;;;;;;;5005389;28;20233;-70
2021/03/04 04:39:46;;;;;;;70.60;30.90;;;;;;;;;;5003810;28;20219;-70
2021/03/04 04:42:12;;;;;;;59.97;29.07;;;;;;;;;;5002619;28;20278;-70
2021/03/04 04:44:37;;;;;;;66.33;28.53;;;;;;;;;;5001989;28;20281;-70
2021/03/04 04:47:02;;;;;;;62.47;28.37;;;;;;;;;;4999115;28;20180;-70
2021/03/04 04:49:27;;;;;;;62.40;30.43;;;;;;;;;;4996182;28;20221;-70
2021/03/04 04:51:52;;;;;;;64.27;30.87;;;;;;;;;;5000328;28;20258;-70
2021/03/04 04:54:18;;;;;;;58.63;28.17;;;;;;;;;;5000780;28;20191;-69
2021/03/04 04:56:43;;;;;;;57.87;28.87;;;;;;;;;;5006257;28;20210;-69
2021/03/04 04:59:08;;;;;;;61.37;31.37;;;;;;;;;;4999302;28;20207;-69
2021/03/04 05:01:33;;;;;;;56.03;28.90;;;;;;;;;;5001377;28;20561;-70
2021/03/04 05:03:59;;;;;;;58.93;28.10;;;;;;;;;;4997193;28;20187;-70
2021/03/04 05:06:24;;;;;;;54.10;28.70;;;;;;;;;;5004037;28;20175;-70
2021/03/04 05:08:49;;;;;;;63.30;30.30;;;;;;;;;;5001308;28;20247;-71
2021/03/04 05:11:15;;;;;;;60.77;29.40;;;;;;;;;;4995899;28;20179;-69
2021/03/04 05:13:40;;;;;;;56.90;28.73;;;;;;;;;;5008414;28;20563;-72
2021/03/04 05:16:05;;;;;;;54.03;26.83;;;;;;;;;;4999480;28;20184;-72
2021/03/04 05:18:31;;;;;;;54.77;25.33;;;;;;;;;;5002126;28;20203;-70
2021/03/04 05:20:56;;;;;;;60.27;26.33;;;;;;;;;;5005727;28;20682;-69
2021/03/04 05:23:21;;;;;;;53.47;25.03;;;;;;;;;;5006614;28;20175;-70
2021/03/04 05:25:46;;;;;;;49.77;24.77;;;;;;;;;;5007214;28;20214;-70
2021/03/04 05:28:13;;;;;;;54.70;26.70;;;;;;;;;;4997934;28;20277;-70
2021/03/04 05:30:39;;;;;;;48.53;24.73;;;;;;;;;;5002622;28;20258;-70
2021/03/04 05:33:04;;;;;;;55.27;26.60;;;;;;;;;;5003152;28;20187;-72
2021/03/04 05:35:29;;;;;;;60.83;28.17;;;;;;;;;;5008058;28;20179;-72
2021/03/04 05:37:54;;;;;;;56.27;27.70;;;;;;;;;;4998701;28;20210;-71
2021/03/04 05:40:19;;;;;;;54.80;25.83;;;;;;;;;;5004528;28;20206;-70
2021/03/04 05:42:46;;;;;;;54.73;25.87;;;;;;;;;;4998520;28;20223;-71
2021/03/04 05:45:12;;;;;;;56.60;26.83;;;;;;;;;;5004116;28;20172;-69
2021/03/04 05:47:39;;;;;;;49.73;25.57;;;;;;;;;;4997542;28;20186;-71
2021/03/04 05:50:06;;;;;;;46.90;23.10;;;;;;;;;;4997156;28;20204;-70
2021/03/04 05:52:37;;;;;;;44.23;22.00;;;;;;;;;;5000207;28;20270;-69
2021/03/04 05:55:03;;;;;;;50.03;24.27;;;;;;;;;;5004207;28;20241;-70
2021/03/04 05:57:31;;;;;;;45.90;23.63;;;;;;;;;;5003472;28;20186;-71
2021/03/04 05:59:57;;;;;;;50.10;25.83;;;;;;;;;;5008429;28;20321;-71
2021/03/04 06:02:22;;;;;;;53.27;25.77;;;;;;;;;;5000526;28;20179;-70
2021/03/04 06:04:48;;;;;;;50.90;24.80;;;;;;;;;;5000401;28;20179;-70
2021/03/04 06:07:14;;;;;;;51.77;26.00;;;;;;;;;;5002931;28;20206;-70
2021/03/04 06:09:39;;;;;;;47.80;23.80;;;;;;;;;;5000427;28;20230;-70
2021/03/04 06:12:05;;;;;;;53.97;25.50;;;;;;;;;;4997891;28;20183;-70
2021/03/04 06:14:30;;;;;;;50.97;24.57;;;;;;;;;;5003467;28;20647;-70
2021/03/04 06:16:56;;;;;;;54.27;25.73;;;;;;;;;;4995796;28;20191;-70
2021/03/04 06:19:21;;;;;;;50.90;24.93;;;;;;;;;;5006719;28;20281;-70
2021/03/04 06:21:57;;;;;;;51.87;26.13;;;;;;;;;;5013213;28;20178;-71
2021/03/04 06:24:22;;;;;;;55.60;28.17;;;;;;;;;;5010567;28;20179;-69
2021/03/04 06:26:54;;;;;;;55.63;25.10;;;;;;;;;;5003580;28;20171;-70
2021/03/04 06:29:21;;;;;;;52.07;26.37;;;;;;;;;;5005058;28;20703;-70
2021/03/04 06:31:57;;;;;;;52.43;26.33;;;;;;;;;;5001448;28;20183;-70
2021/03/04 06:34:22;;;;;;;50.37;26.23;;;;;;;;;;4996555;28;20183;-70
2021/03/04 06:36:59;;;;;;;53.47;26.67;;;;;;;;;;5002418;28;20179;-70
2021/03/04 06:39:25;;;;;;;53.33;26.60;;;;;;;;;;4999058;28;20209;-70
2021/03/04 06:42:18;;;;;;;57.80;26.80;;;;;;;;;;5001577;28;20648;-71
2021/03/04 06:44:48;;;;;;;67.37;27.17;;;;;;;;;;5003204;28;20223;-70
2021/03/04 06:47:20;;;;;;;55.60;25.90;;;;;;;;;;5001647;28;20172;-69
2021/03/04 06:49:45;;;;;;;65.30;28.93;;;;;;;;;;4995369;28;20230;-71
2021/03/04 06:52:10;;;;;;;59.20;27.13;;;;;;;;;;5003463;28;20645;-72
2021/03/04 06:54:36;;;;;;;53.37;26.27;;;;;;;;;;5001745;28;20183;-70
2021/03/04 06:57:11;;;;;;;61.13;27.23;;;;;;;;;;5006227;28;20191;-70
2021/03/04 06:59:40;;;;;;;57.23;25.70;;;;;;;;;;5005095;28;20214;-70
2021/03/04 07:02:05;;;;;;;57.93;27.60;;;;;;;;;;5006452;28;20186;-70
2021/03/04 07:04:30;;;;;;;54.47;25.70;;;;;;;;;;5002967;28;20179;-70
2021/03/04 07:06:55;;;;;;;62.30;27.13;;;;;;;;;;4995392;28;20201;-70
2021/03/04 07:09:21;;;;;;;55.43;26.53;;;;;;;;;;4999758;28;20587;-71
2021/03/04 07:11:46;;;;;;;55.90;25.87;;;;;;;;;;5008011;28;20179;-70
2021/03/04 07:14:11;;;;;;;58.77;25.90;;;;;;;;;;5001317;28;20179;-70
2021/03/04 07:16:37;;;;;;;57.13;25.30;;;;;;;;;;5003507;28;20197;-70
2021/03/04 07:19:03;;;;;;;52.83;25.27;;;;;;;;;;5011218;28;20584;-71
2021/03/04 07:21:33;;;;;;;58.40;25.13;;;;;;;;;;4998102;28;20190;-71
2021/03/04 07:24:02;;;;;;;58.63;28.17;;;;;;;;;;5004351;28;20191;-71
2021/03/04 07:26:27;;;;;;;56.90;23.93;;;;;;;;;;5002798;28;20183;-71
2021/03/04 07:28:55;;;;;;;56.37;25.33;;;;;;;;;;5006120;28;20197;-71
2021/03/04 07:31:21;;;;;;;55.97;26.50;;;;;;;;;;5004422;28;20732;-71
2021/03/04 07:33:47;;;;;;;58.60;25.87;;;;;;;;;;5003045;28;20214;-70
2021/03/04 07:36:13;;;;;;;55.90;24.60;;;;;;;;;;5000260;28;20226;-71
2021/03/04 07:38:39;;;;;;;52.83;24.57;;;;;;;;;;4999169;28;20638;-71
2021/03/04 07:41:07;;;;;;;59.43;24.10;;;;;;;;;;5000101;28;21913;-71
2021/03/04 07:43:50;;;;;;;60.40;26.90;;;;;;;;;;5001408;28;20181;-71
2021/03/04 07:46:41;;;;;;;55.53;24.60;;;;;;;;;;5007461;28;20174;-71
2021/03/04 07:49:07;;;;;;;54.63;23.13;;;;;;;;;;4979002;28;20208;-70
2021/03/04 07:51:42;;;;;;;58.27;27.87;;;;;;;;;;5003122;28;20202;-71
2021/03/04 07:54:07;;;;;;;55.93;24.50;;;;;;;;;;4998431;28;20258;-72
2021/03/04 07:56:33;;;;;;;58.33;26.13;;;;;;;;;;5002988;28;20270;-72
2021/03/04 07:59:14;;;;;;;57.73;26.17;;;;;;;;;;5000540;28;20874;-70
2021/03/04 08:01:54;;;;;;;62.70;29.77;;;;;;;;;;5005242;28;20187;-72
2021/03/04 08:04:20;;;;;;;50.93;24.73;;;;;;;;;;5006364;28;20645;-70
2021/03/04 08:06:47;;;;;;;64.70;28.83;;;;;;;;;;5006310;28;20521;-70
2021/03/04 08:09:22;;;;;;;56.27;27.17;;;;;;;;;;5001693;28;20215;-71
2021/03/04 08:11:48;;;;;;;64.30;25.40;;;;;;;;;;5001608;28;20627;-70
2021/03/04 08:14:14;;;;;;;61.67;26.13;;;;;;;;;;4999950;28;20175;-70
2021/03/04 08:16:40;;;;;;;59.40;26.30;;;;;;;;;;5003784;28;20249;-71
2021/03/04 08:19:05;;;;;;;68.50;29.83;;;;;;;;;;5002754;28;20293;-71
2021/03/04 08:21:31;;;;;;;66.37;28.33;;;;;;;;;;5004454;28;20183;-71
2021/03/04 08:23:56;;;;;;;75.53;30.23;;;;;;;;;;5012168;28;20183;-71
2021/03/04 08:26:25;;;;;;;61.07;26.57;;;;;;;;;;5004973;28;20179;-71
2021/03/04 08:29:01;;;;;;;67.70;28.17;;;;;;;;;;5009814;28;20234;-70
2021/03/04 08:31:27;;;;;;;68.53;28.63;;;;;;;;;;5000845;28;20546;-70
2021/03/04 08:33:56;;;;;;;80.30;29.53;;;;;;;;;;5006261;28;20190;-71
2021/03/04 08:36:21;;;;;;;69.90;29.90;;;;;;;;;;4999689;28;20178;-71
2021/03/04 08:38:47;;;;;;;66.67;29.30;;;;;;;;;;4999164;28;20215;-70
2021/03/04 08:41:18;;;;;;;72.57;28.07;;;;;;;;;;4996379;28;20549;-72
2021/03/04 08:43:43;;;;;;;66.07;27.50;;;;;;;;;;4996322;28;20184;-70
2021/03/04 08:46:08;;;;;;;73.20;28.10;;;;;;;;;;4998707;28;20175;-71
2021/03/04 08:48:33;;;;;;;63.97;27.63;;;;;;;;;;5000163;28;20218;-71
2021/03/04 08:51:03;;;;;;;69.47;28.50;;;;;;;;;;4999952;28;20186;-70
2021/03/04 08:53:29;;;;;;;67.97;27.90;;;;;;;;;;4998899;28;20183;-71
2021/03/04 08:55:56;;;;;;;77.10;29.87;;;;;;;;;;4996947;28;20183;-70
2021/03/04 08:58:23;;;;;;;70.80;28.70;;;;;;;;;;5000435;28;20202;-71
2021/03/04 09:00:48;;;;;;;70.50;29.73;;;;;;;;;;5004769;28;20222;-71
2021/03/04 09:03:13;;;;;;;68.13;28.13;;;;;;;;;;4996974;28;20192;-70
2021/03/04 09:05:39;;;;;;;67.63;27.37;;;;;;;;;;5000255;28;20183;-71
2021/03/04 09:08:08;;;;;;;62.53;26.03;;;;;;;;;;5007943;28;20182;-71
2021/03/04 09:10:43;;;;;;;56.53;26.20;;;;;;;;;;4997000;28;20223;-71
2021/03/04 09:13:08;;;;;;;51.90;25.33;;;;;;;;;;4999956;28;20468;-70
2021/03/04 09:15:34;;;;;;;59.63;25.70;;;;;;;;;;4995533;28;20182;-72
2021/03/04 09:18:05;;;;;;;58.47;25.03;;;;;;;;;;4995056;28;20203;-70
2021/03/04 09:20:30;;;;;;;53.73;25.33;;;;;;;;;;4999573;28;20194;-69
2021/03/04 09:22:56;;;;;;;58.33;25.17;;;;;;;;;;5000192;28;20176;-71
2021/03/04 09:25:21;;;;;;;56.43;28.17;;;;;;;;;;4999477;28;20805;-71
2021/03/04 09:27:46;;;;;;;55.93;25.57;;;;;;;;;;4993991;28;20176;-71
2021/03/04 09:30:22;;;;;;;59.10;25.37;;;;;;;;;;4992448;28;20210;-73
2021/03/04 09:32:47;;;;;;;56.80;25.57;;;;;;;;;;5000147;28;20201;-70
2021/03/04 09:35:12;;;;;;;48.07;23.60;;;;;;;;;;4996975;28;20176;-71
2021/03/04 09:37:38;;;;;;;48.50;23.23;;;;;;;;;;5003210;28;20222;-70
2021/03/04 09:40:03;;;;;;;47.77;22.33;;;;;;;;;;4999295;28;20257;-71
2021/03/04 09:42:34;;;;;;;52.93;21.77;;;;;;;;;;5005114;28;20186;-70
2021/03/04 09:45:05;;;;;;;41.50;19.10;;;;;;;;;;5006971;28;20187;-73
2021/03/04 09:47:31;;;;;;;38.57;17.20;;;;;;;;;;4997827;28;20219;-71
2021/03/04 09:49:57;;;;;;;37.23;18.93;;;;;;;;;;4993428;28;20241;-71
2021/03/04 09:52:24;;;;;;;38.33;18.10;;;;;;;;;;4996248;28;20208;-70
2021/03/04 09:54:50;;;;;;;38.17;17.73;;;;;;;;;;4995702;28;20667;-70
2021/03/04 09:57:19;;;;;;;33.43;15.87;;;;;;;;;;4994019;28;20214;-70
2021/03/04 09:59:45;;;;;;;35.33;16.37;;;;;;;;;;4991195;28;20211;-69
2021/03/04 10:02:10;;;;;;;34.37;17.57;;;;;;;;;;4990533;28;20260;-70
2021/03/04 10:04:35;;;;;;;34.87;17.53;;;;;;;;;;4993802;28;20218;-70
2021/03/04 10:07:01;;;;;;;35.77;16.90;;;;;;;;;;4992718;28;20558;-71
2021/03/04 10:09:26;;;;;;;34.10;17.40;;;;;;;;;;4994111;28;20258;-70
2021/03/04 10:11:51;;;;;;;29.90;14.80;;;;;;;;;;5000592;28;20187;-70
2021/03/04 10:14:17;;;;;;;29.63;14.93;;;;;;;;;;4994639;28;20179;-70
2021/03/04 10:16:42;;;;;;;30.10;14.27;;;;;;;;;;4993897;28;20557;-70
2021/03/04 10:19:08;;;;;;;30.13;14.10;;;;;;;;;;4996714;28;20739;-71
2021/03/04 10:21:33;;;;;;;28.20;15.33;;;;;;;;;;5008814;28;20597;-71
2021/03/04 10:23:58;;;;;;;29.70;15.07;;;;;;;;;;5007209;28;20179;-70
2021/03/04 10:26:24;;;;;;;25.57;14.20;;;;;;;;;;4995443;28;20209;-71
2021/03/04 10:28:49;;;;;;;27.53;13.70;;;;;;;;;;4996502;28;20237;-71
2021/03/04 10:31:14;;;;;;;29.77;13.93;;;;;;;;;;5009009;28;20218;-73
2021/03/04 10:33:40;;;;;;;25.17;12.67;;;;;;;;;;5008353;28;20190;-70
2021/03/04 10:36:05;;;;;;;28.03;13.77;;;;;;;;;;5006326;28;20984;-70
2021/03/04 10:38:30;;;;;;;23.67;13.87;;;;;;;;;;5002330;28;20206;-71
2021/03/04 10:40:55;;;;;;;21.97;12.50;;;;;;;;;;4997624;28;20241;-70
2021/03/04 10:43:21;;;;;;;16.80;9.40;;;;;;;;;;4990787;28;20321;-71
2021/03/04 10:45:46;;;;;;;17.50;8.57;;;;;;;;;;4996310;28;20215;-71
2021/03/04 10:48:11;;;;;;;12.77;6.13;;;;;;;;;;4996886;28;20260;-71
2021/03/04 10:50:36;;;;;;;11.07;5.97;;;;;;;;;;4993541;28;20227;-71
2021/03/04 10:53:02;;;;;;;8.57;5.50;;;;;;;;;;4999849;28;20179;-71
2021/03/04 10:55:28;;;;;;;9.37;5.60;;;;;;;;;;4996913;28;20271;-70
2021/03/04 10:57:53;;;;;;;8.63;5.07;;;;;;;;;;4993701;28;20178;-70
2021/03/04 11:00:18;;;;;;;7.57;4.87;;;;;;;;;;4993172;28;20637;-69
2021/03/04 11:02:44;;;;;;;9.43;5.43;;;;;;;;;;4991245;28;20482;-71
2021/03/04 11:05:09;;;;;;;8.97;4.80;;;;;;;;;;4991377;28;20189;-70
2021/03/04 11:07:34;;;;;;;9.07;5.40;;;;;;;;;;4995772;28;20728;-71
2021/03/04 11:10:00;;;;;;;11.37;6.13;;;;;;;;;;4992618;28;20763;-71
2021/03/04 11:12:28;;;;;;;10.63;4.97;;;;;;;;;;4999482;28;20183;-70
2021/03/04 11:14:53;;;;;;;10.00;5.20;;;;;;;;;;5000017;28;20190;-70
2021/03/04 11:17:18;;;;;;;8.27;5.27;;;;;;;;;;4992838;28;20187;-71
2021/03/04 11:19:44;;;;;;;8.93;5.40;;;;;;;;;;5004889;28;20207;-71
2021/03/04 11:22:09;;;;;;;8.50;5.63;;;;;;;;;;4992195;28;20176;-70
2021/03/04 11:24:34;;;;;;;9.90;6.17;;;;;;;;;;5000422;28;20613;-71
2021/03/04 11:26:59;;;;;;;9.30;5.53;;;;;;;;;;4992543;28;20246;-71
2021/03/04 11:29:25;;;;;;;7.47;5.23;;;;;;;;;;4994589;28;20285;-70
2021/03/04 11:31:50;;;;;;;10.17;6.30;;;;;;;;;;4992893;28;20185;-71
2021/03/04 11:34:15;;;;;;;13.07;5.30;;;;;;;;;;4991740;28;20189;-70
2021/03/04 11:36:40;;;;;;;8.20;5.27;;;;;;;;;;4994588;28;20238;-71
2021/03/04 11:39:06;;;;;;;7.47;5.37;;;;;;;;;;4993928;28;20199;-71
2021/03/04 11:41:32;;;;;;;7.13;5.23;;;;;;;;;;4995451;28;20202;-71
2021/03/04 11:43:57;;;;;;;7.73;4.47;;;;;;;;;;4991672;28;20183;-71
2021/03/04 11:46:22;;;;;;;6.37;4.73;;;;;;;;;;4993465;28;20202;-71
2021/03/04 11:48:48;;;;;;;7.47;4.00;;;;;;;;;;4993749;28;20244;-72
2021/03/04 11:51:13;;;;;;;6.43;4.80;;;;;;;;;;4993444;28;20271;-71
2021/03/04 11:53:39;;;;;;;8.13;5.13;;;;;;;;;;4991684;28;20334;-70
2021/03/04 11:56:04;;;;;;;4.47;3.87;;;;;;;;;;4999716;28;20928;-70
2021/03/04 11:58:29;;;;;;;6.67;4.97;;;;;;;;;;5002378;28;20207;-70
2021/03/04 12:00:55;;;;;;;7.17;5.30;;;;;;;;;;5004315;28;20191;-71
2021/03/04 12:03:21;;;;;;;7.83;4.73;;;;;;;;;;5007490;28;20183;-71
2021/03/04 12:05:46;;;;;;;7.30;5.07;;;;;;;;;;5005889;28;20532;-70
2021/03/04 12:08:11;;;;;;;7.60;5.60;;;;;;;;;;5005722;28;20199;-71
2021/03/04 12:10:37;;;;;;;6.17;4.57;;;;;;;;;;5005474;28;20297;-70
2021/03/04 12:13:02;;;;;;;8.40;5.23;;;;;;;;;;5001451;28;20258;-70
2021/03/04 12:15:28;;;;;;;7.07;4.53;;;;;;;;;;5000409;28;20183;-73
2021/03/04 12:17:53;;;;;;;5.70;4.47;;;;;;;;;;5004737;28;20644;-72
2021/03/04 12:20:18;;;;;;;6.43;5.23;;;;;;;;;;5002929;28;20256;-71
2021/03/04 12:22:43;;;;;;;7.17;4.87;;;;;;;;;;5001228;28;20242;-72
2021/03/04 12:25:09;;;;;;;5.67;4.37;;;;;;;;;;4995103;28;20492;-72
2021/03/04 12:27:34;;;;;;;6.97;4.80;;;;;;;;;;4999715;28;20177;-71
2021/03/04 12:29:59;;;;;;;7.70;4.97;;;;;;;;;;5007556;28;20583;-72
2021/03/04 12:32:25;;;;;;;5.73;4.33;;;;;;;;;;5003696;28;20176;-73
2021/03/04 12:34:50;;;;;;;6.23;3.80;;;;;;;;;;5005662;28;20211;-71
2021/03/04 12:37:15;;;;;;;8.97;4.57;;;;;;;;;;5007622;28;20662;-71
2021/03/04 12:39:41;;;;;;;7.37;4.60;;;;;;;;;;5007118;28;20216;-71
2021/03/04 12:42:06;;;;;;;7.80;5.50;;;;;;;;;;5007623;28;20262;-72
2021/03/04 12:44:31;;;;;;;5.53;4.03;;;;;;;;;;5007598;28;20183;-72
2021/03/04 12:46:56;;;;;;;6.20;3.63;;;;;;;;;;5007793;28;20168;-71
2021/03/04 12:49:22;;;;;;;5.77;4.50;;;;;;;;;;5012308;28;20659;-71
2021/03/04 12:51:47;;;;;;;5.90;4.43;;;;;;;;;;4998663;28;20530;-71
2021/03/04 12:54:12;;;;;;;7.10;4.33;;;;;;;;;;5000910;28;20276;-70
2021/03/04 12:56:37;;;;;;;4.87;3.73;;;;;;;;;;4999263;28;20889;-70
2021/03/04 12:59:04;;;;;;;6.07;3.80;;;;;;;;;;5001501;28;20211;-70
2021/03/04 13:01:29;;;;;;;4.83;3.00;;;;;;;;;;4999241;28;20575;-72
2021/03/04 13:03:55;;;;;;;8.57;4.37;;;;;;;;;;5000747;28;20650;-72
2021/03/04 13:06:20;;;;;;;5.37;3.77;;;;;;;;;;5008049;28;20183;-69
2021/03/04 13:08:46;;;;;;;5.00;3.20;;;;;;;;;;5002979;28;20211;-70
2021/03/04 13:11:11;;;;;;;4.77;2.97;;;;;;;;;;5006218;28;20188;-69
2021/03/04 13:13:36;;;;;;;4.97;3.23;;;;;;;;;;5001481;28;20187;-73
2021/03/04 13:16:01;;;;;;;6.87;3.10;;;;;;;;;;5001269;28;20184;-69
2021/03/04 13:18:27;;;;;;;5.53;3.30;;;;;;;;;;5002455;28;20191;-70
2021/03/04 13:20:52;;;;;;;6.63;3.53;;;;;;;;;;5009527;28;20187;-69
2021/03/04 13:23:17;;;;;;;6.83;2.90;;;;;;;;;;5008499;28;20181;-69
2021/03/04 13:25:43;;;;;;;4.03;3.27;;;;;;;;;;5011215;28;20258;-69
2021/03/04 13:28:08;;;;;;;8.40;3.27;;;;;;;;;;5010485;28;20202;-69
2021/03/04 13:30:33;;;;;;;9.73;3.47;;;;;;;;;;5009764;28;20585;-69
2021/03/04 13:33:11;;;;;;;5.20;3.50;;;;;;;;;;5088822;27;20540;-70
2021/03/04 13:35:36;;;;;;;4.33;3.10;;;;;;;;;;5071506;28;20263;-70
2021/03/04 13:38:02;;;;;;;6.27;3.20;;;;;;;;;;5070679;28;20169;-71
2021/03/04 13:40:27;;;;;;;12.13;3.90;;;;;;;;;;5069220;28;20197;-70
2021/03/04 13:42:52;;;;;;;4.07;3.20;;;;;;;;;;5068564;28;20176;-72
2021/03/04 13:45:17;;;;;;;8.93;3.67;;;;;;;;;;5066471;28;20189;-70
2021/03/04 13:47:43;;;;;;;4.90;2.90;;;;;;;;;;5068677;28;20204;-70
2021/03/04 13:50:09;;;;;;;8.43;3.20;;;;;;;;;;5067259;28;20200;-72
2021/03/04 13:52:34;;;;;;;8.60;2.90;;;;;;;;;;5068503;28;20209;-71
2021/03/04 13:54:59;;;;;;;6.60;3.10;;;;;;;;;;5065969;28;20177;-71
2021/03/04 13:57:24;;;;;;;7.97;3.33;;;;;;;;;;5056714;28;20173;-72
2021/03/04 13:59:52;;;;;;;6.10;2.83;;;;;;;;;;5063533;28;20209;-72
2021/03/04 14:02:18;;;;;;;7.80;3.23;;;;;;;;;;5067295;28;20173;-71
2021/03/04 14:04:43;;;;;;;5.97;3.50;;;;;;;;;;5066840;28;20685;-71
2021/03/04 14:07:08;;;;;;;8.07;3.83;;;;;;;;;;5062972;28;20646;-71
2021/03/04 14:09:33;;;;;;;6.20;3.37;;;;;;;;;;5068132;28;20193;-69
2021/03/04 14:11:58;;;;;;;5.80;3.20;;;;;;;;;;5068258;28;20197;-69
2021/03/04 14:14:24;;;;;;;7.50;4.00;;;;;;;;;;5061463;28;20235;-69
2021/03/04 14:16:49;;;;;;;6.20;4.30;;;;;;;;;;5062521;28;20170;-69